createdAt,value
2023-08-16T00:01:23.503Z,21.96
2023-08-16T00:05:34.666Z,21.87
2023-08-16T00:09:42.743Z,21.80
2023-08-16T00:13:50.514Z,21.76
2023-08-16T00:17:58.246Z,21.72
2023-08-16T00:22:07.438Z,21.64
2023-08-16T00:26:15.083Z,21.54
2023-08-16T00:30:22.905Z,21.49
2023-08-16T00:34:31.202Z,21.43
2023-08-16T00:38:44.119Z,21.40
2023-08-16T00:42:52.064Z,21.39
2023-08-16T00:46:59.942Z,21.36
2023-08-16T00:51:08.103Z,21.33
2023-08-16T00:55:16.098Z,21.26
2023-08-16T00:59:24.778Z,21.19
2023-08-16T01:03:32.447Z,21.11
2023-08-16T01:07:40.577Z,21.09
2023-08-16T01:11:54.895Z,21.07
2023-08-16T01:16:03.865Z,21.05
2023-08-16T01:20:14.654Z,21.01
2023-08-16T01:24:29.022Z,20.93
2023-08-16T01:28:37.834Z,20.85
2023-08-16T01:32:45.998Z,20.69
2023-08-16T01:36:53.600Z,20.37
2023-08-16T01:41:05.342Z,20.20
2023-08-16T01:45:14.013Z,20.14
2023-08-16T01:49:22.653Z,20.11
2023-08-16T01:53:31.345Z,20.12
2023-08-16T01:57:39.430Z,20.13
2023-08-16T02:01:47.298Z,20.11
2023-08-16T02:05:55.657Z,19.99
2023-08-16T02:10:03.664Z,19.94
2023-08-16T02:14:12.710Z,19.94
2023-08-16T02:18:20.943Z,19.94
2023-08-16T02:22:40.780Z,19.91
2023-08-16T02:26:50.625Z,19.88
2023-08-16T02:31:07.164Z,19.83
2023-08-16T02:35:19.296Z,19.77
2023-08-16T02:39:27.669Z,19.72
2023-08-16T02:43:35.404Z,19.72
2023-08-16T02:47:43.557Z,19.70
2023-08-16T02:51:52.419Z,19.66
2023-08-16T02:56:00.623Z,19.63
2023-08-16T03:00:11.867Z,19.60
2023-08-16T03:04:19.406Z,19.59
2023-08-16T03:08:27.880Z,19.56
2023-08-16T03:12:35.835Z,19.49
2023-08-16T03:16:43.934Z,19.33
2023-08-16T03:20:51.980Z,19.23
2023-08-16T03:25:00.532Z,19.23
2023-08-16T03:29:11.327Z,19.26
2023-08-16T03:33:19.148Z,19.30
2023-08-16T03:37:27.052Z,19.28
2023-08-16T03:41:35.224Z,19.26
2023-08-16T03:45:43.185Z,19.24
2023-08-16T03:49:51.250Z,19.24
2023-08-16T03:53:59.168Z,19.19
2023-08-16T03:58:07.313Z,19.15
2023-08-16T04:02:15.092Z,19.11
2023-08-16T04:06:22.930Z,19.10
2023-08-16T04:10:31.197Z,19.12
2023-08-16T04:14:40.143Z,19.19
2023-08-16T04:18:49.319Z,19.25
2023-08-16T04:22:57.609Z,19.28
2023-08-16T04:27:05.917Z,19.30
2023-08-16T04:31:14.055Z,19.30
2023-08-16T04:35:21.947Z,19.35
2023-08-16T04:39:29.678Z,19.41
2023-08-16T04:43:37.476Z,19.50
2023-08-16T04:47:45.716Z,19.57
2023-08-16T04:51:54.098Z,19.65
2023-08-16T04:56:01.726Z,19.72
2023-08-16T05:00:12.116Z,19.79
2023-08-16T05:04:20.125Z,19.89
2023-08-16T05:08:28.118Z,20.01
2023-08-16T05:12:37.649Z,20.13
2023-08-16T05:16:45.609Z,20.25
2023-08-16T05:20:54.190Z,20.35
2023-08-16T05:25:02.579Z,20.50
2023-08-16T05:29:10.545Z,20.68
2023-08-16T05:33:20.149Z,20.90
2023-08-16T05:37:29.510Z,21.13
2023-08-16T05:41:38.491Z,21.36
2023-08-16T05:45:46.452Z,21.61
2023-08-16T05:49:55.320Z,21.90
2023-08-16T05:54:03.890Z,22.19
2023-08-16T05:58:11.689Z,22.46
2023-08-16T06:02:24.582Z,22.72
2023-08-16T06:06:32.808Z,22.98
2023-08-16T06:10:40.775Z,23.25
2023-08-16T06:14:48.740Z,23.53
2023-08-16T06:18:57.441Z,23.79
2023-08-16T06:23:05.908Z,24.00
2023-08-16T06:27:14.864Z,24.17
2023-08-16T06:31:22.964Z,24.32
2023-08-16T06:35:33.812Z,24.45
2023-08-16T06:39:42.949Z,24.55
2023-08-16T06:43:50.797Z,24.65
2023-08-16T06:48:01.201Z,24.81
2023-08-16T06:52:10.706Z,25.01
2023-08-16T06:56:18.623Z,25.17
2023-08-16T07:00:27.804Z,25.34
2023-08-16T07:04:35.885Z,25.48
2023-08-16T07:08:45.524Z,25.62
2023-08-16T07:12:53.458Z,25.74
2023-08-16T07:17:01.449Z,25.92
2023-08-16T07:21:09.354Z,26.08
2023-08-16T07:25:17.257Z,26.25
2023-08-16T07:29:26.468Z,26.40
2023-08-16T07:33:36.392Z,26.51
2023-08-16T07:37:44.774Z,26.65
2023-08-16T07:41:52.781Z,26.80
2023-08-16T07:46:02.108Z,26.91
2023-08-16T07:50:11.883Z,26.98
2023-08-16T07:54:19.587Z,27.06
2023-08-16T07:58:28.145Z,27.16
2023-08-16T08:02:53.728Z,27.27
2023-08-16T08:07:06.120Z,27.36
2023-08-16T08:11:13.920Z,27.43
2023-08-16T08:15:22.698Z,27.48
2023-08-16T08:19:31.199Z,27.55
2023-08-16T08:23:41.558Z,27.56
2023-08-16T08:27:51.653Z,27.61
2023-08-16T08:31:59.692Z,27.68
2023-08-16T08:36:08.499Z,27.79
2023-08-16T08:40:16.822Z,27.90
2023-08-16T08:44:25.835Z,28.02
2023-08-16T08:48:35.824Z,28.13
2023-08-16T08:52:51.624Z,28.18
2023-08-16T08:57:00.615Z,28.24
2023-08-16T09:01:11.532Z,28.36
2023-08-16T09:05:23.484Z,28.50
2023-08-16T09:09:32.539Z,28.62
2023-08-16T09:13:40.593Z,28.69
2023-08-16T09:17:51.576Z,28.78
2023-08-16T09:22:00.588Z,28.91
2023-08-16T09:26:19.078Z,29.01
2023-08-16T09:30:29.760Z,29.09
2023-08-16T09:34:51.032Z,29.17
2023-08-16T09:39:08.089Z,29.26
2023-08-16T09:43:15.594Z,29.31
2023-08-16T09:47:40.823Z,29.40
2023-08-16T09:56:37.230Z,29.52
2023-08-16T10:00:36.161Z,29.52
2023-08-16T10:08:56.299Z,29.53
2023-08-16T10:13:05.565Z,29.49
2023-08-16T10:17:15.226Z,29.46
2023-08-16T10:21:24.813Z,29.60
2023-08-16T10:25:41.232Z,29.78
2023-08-16T10:29:54.482Z,29.87
2023-08-16T10:34:03.539Z,29.96
2023-08-16T10:38:12.375Z,30.03
2023-08-16T10:42:20.891Z,30.13
2023-08-16T10:46:33.477Z,30.20
2023-08-16T10:50:43.385Z,30.29
2023-08-16T10:54:51.918Z,30.46
2023-08-16T10:59:00.566Z,30.53
2023-08-16T11:03:22.698Z,30.55
2023-08-16T11:07:32.660Z,30.66
2023-08-16T11:11:47.457Z,30.77
2023-08-16T11:15:56.523Z,30.85
2023-08-16T11:20:08.864Z,30.96
2023-08-16T11:24:16.821Z,30.99
2023-08-16T11:28:25.343Z,31.07
2023-08-16T11:32:38.559Z,31.22
2023-08-16T11:36:47.007Z,31.24
2023-08-16T11:40:55.189Z,31.31
2023-08-16T11:45:02.729Z,31.32
2023-08-16T11:49:11.645Z,31.30
2023-08-16T11:53:21.131Z,31.20
2023-08-16T11:57:29.260Z,31.15
2023-08-16T12:01:41.152Z,31.15
2023-08-16T12:05:51.155Z,31.24
2023-08-16T12:09:59.163Z,31.47
2023-08-16T12:14:08.004Z,31.63
2023-08-16T12:18:16.811Z,31.68
2023-08-16T12:22:24.848Z,31.62
2023-08-16T12:26:33.410Z,31.76
2023-08-16T12:30:43.342Z,32.04
2023-08-16T12:35:00.545Z,32.19
2023-08-16T12:39:08.787Z,32.28
2023-08-16T12:47:29.485Z,32.36
2023-08-16T12:51:37.975Z,32.30
2023-08-16T13:04:35.405Z,32.11
2023-08-16T13:12:58.473Z,32.59
2023-08-16T13:30:13.434Z,32.92
2023-08-16T13:38:49.163Z,32.91
2023-08-16T13:43:11.283Z,32.88
2023-08-16T13:47:22.573Z,32.95
2023-08-16T13:51:30.362Z,32.93
2023-08-16T13:55:38.422Z,32.88
2023-08-16T13:59:48.579Z,32.98
2023-08-16T14:03:56.419Z,32.86
2023-08-16T14:08:05.432Z,32.75
2023-08-16T14:12:13.612Z,32.78
2023-08-16T14:16:21.239Z,32.84
2023-08-16T14:20:29.409Z,32.81
2023-08-16T14:24:36.995Z,32.78
2023-08-16T14:28:45.165Z,32.70
2023-08-16T14:32:53.375Z,32.64
2023-08-16T14:37:01.991Z,32.66
2023-08-16T14:41:10.078Z,32.72
2023-08-16T14:45:17.922Z,32.75
2023-08-16T14:49:25.785Z,32.63
2023-08-16T14:53:33.659Z,32.53
2023-08-16T14:57:47.864Z,32.43
2023-08-16T15:01:55.943Z,32.31
2023-08-16T15:06:04.139Z,32.23
2023-08-16T15:10:13.189Z,32.18
2023-08-16T15:14:20.815Z,32.12
2023-08-16T15:18:28.440Z,32.04
2023-08-16T15:22:36.291Z,32.02
2023-08-16T15:26:44.419Z,32.02
2023-08-16T15:30:57.758Z,31.94
2023-08-16T15:35:06.587Z,31.90
2023-08-16T15:39:14.906Z,31.89
2023-08-16T15:43:22.660Z,31.84
2023-08-16T15:47:30.339Z,31.72
2023-08-16T15:51:38.449Z,31.68
2023-08-16T15:55:46.576Z,31.64
2023-08-16T15:59:54.874Z,31.58
2023-08-16T16:04:02.638Z,31.53
2023-08-16T16:08:13.183Z,31.49
2023-08-16T16:12:21.925Z,31.42
2023-08-16T16:16:29.819Z,31.37
2023-08-16T16:20:37.740Z,31.35
2023-08-16T16:24:48.147Z,31.32
2023-08-16T16:28:55.620Z,31.28
2023-08-16T16:33:04.016Z,31.25
2023-08-16T16:37:12.104Z,31.20
2023-08-16T16:41:20.062Z,31.17
2023-08-16T16:45:28.708Z,31.12
2023-08-16T16:49:36.901Z,31.07
2023-08-16T16:53:45.103Z,31.04
2023-08-16T16:57:53.296Z,30.99
2023-08-16T17:02:01.105Z,30.90
2023-08-16T17:06:09.043Z,30.77
2023-08-16T17:10:17.291Z,30.62
2023-08-16T17:14:26.626Z,30.46
2023-08-16T17:18:34.449Z,30.27
2023-08-16T17:22:42.287Z,30.05
2023-08-16T17:26:50.225Z,29.88
2023-08-16T17:30:58.169Z,29.73
2023-08-16T17:35:06.057Z,29.63
2023-08-16T17:39:14.441Z,29.54
2023-08-16T17:43:22.814Z,29.46
2023-08-16T17:47:31.367Z,29.39
2023-08-16T17:51:39.065Z,29.26
2023-08-16T17:55:47.494Z,29.11
2023-08-16T17:59:55.101Z,28.94
2023-08-16T18:04:03.649Z,28.75
2023-08-16T18:08:11.450Z,28.60
2023-08-16T18:12:18.996Z,28.47
2023-08-16T18:16:26.968Z,28.35
2023-08-16T18:20:34.799Z,28.23
2023-08-16T18:24:42.418Z,28.11
2023-08-16T18:28:50.001Z,28.02
2023-08-16T18:32:58.602Z,27.89
2023-08-16T18:37:06.619Z,27.73
2023-08-16T18:41:17.136Z,27.59
2023-08-16T18:45:25.262Z,27.49
2023-08-16T18:49:33.376Z,27.43
2023-08-16T18:53:43.330Z,27.39
2023-08-16T18:57:51.953Z,27.35
2023-08-16T19:02:00.459Z,27.29
2023-08-16T19:06:08.509Z,27.24
2023-08-16T19:10:16.279Z,27.14
2023-08-16T19:14:29.021Z,27.02
2023-08-16T19:18:40.111Z,26.92
2023-08-16T19:22:48.213Z,26.83
2023-08-16T19:26:56.330Z,26.70
2023-08-16T19:31:04.062Z,26.61
2023-08-16T19:35:13.567Z,26.55
2023-08-16T19:39:21.418Z,26.50
2023-08-16T19:43:29.766Z,26.45
2023-08-16T19:47:37.467Z,26.36
2023-08-16T19:51:45.193Z,26.30
2023-08-16T19:55:57.451Z,26.25
2023-08-16T20:00:05.606Z,26.17
2023-08-16T20:04:13.563Z,26.12
2023-08-16T20:08:21.550Z,26.08
2023-08-16T20:12:30.188Z,26.00
2023-08-16T20:16:38.242Z,25.84
2023-08-16T20:20:46.170Z,25.74
2023-08-16T20:24:54.520Z,25.65
2023-08-16T20:29:02.278Z,25.58
2023-08-16T20:33:10.160Z,25.58
2023-08-16T20:37:17.810Z,25.57
2023-08-16T20:41:26.948Z,25.56
2023-08-16T20:45:34.407Z,25.56
2023-08-16T20:49:42.710Z,25.53
2023-08-16T20:54:00.471Z,25.51
2023-08-16T20:58:16.182Z,25.51
2023-08-16T21:02:24.761Z,25.48
2023-08-16T21:06:32.369Z,25.39
2023-08-16T21:10:40.280Z,25.22
2023-08-16T21:14:49.532Z,25.04
2023-08-16T21:18:57.309Z,24.81
2023-08-16T21:23:05.347Z,24.57
2023-08-16T21:27:13.067Z,24.35
2023-08-16T21:31:20.766Z,24.12
2023-08-16T21:35:29.016Z,23.89
2023-08-16T21:39:36.830Z,23.67
2023-08-16T21:43:45.303Z,23.58
2023-08-16T21:47:53.225Z,23.48
2023-08-16T21:52:01.140Z,23.25
2023-08-16T21:56:11.625Z,23.00
2023-08-16T22:00:23.106Z,22.85
2023-08-16T22:04:30.935Z,22.65
2023-08-16T22:08:38.835Z,22.48
2023-08-16T22:12:46.939Z,22.35
2023-08-16T22:16:54.847Z,22.21
2023-08-16T22:21:05.085Z,22.14
2023-08-16T22:25:15.444Z,22.07
2023-08-16T22:29:23.575Z,21.96
2023-08-16T22:33:31.333Z,21.89
2023-08-16T22:37:39.835Z,21.81
2023-08-16T22:41:48.070Z,21.74
2023-08-16T22:45:56.276Z,21.68
2023-08-16T22:50:04.485Z,21.65
2023-08-16T22:54:13.144Z,21.62
2023-08-16T22:58:20.701Z,21.65
2023-08-16T23:02:29.452Z,21.69
2023-08-16T23:06:37.600Z,21.67
2023-08-16T23:10:45.885Z,21.60
2023-08-16T23:14:53.589Z,21.52
2023-08-16T23:19:01.165Z,21.43
2023-08-16T23:23:10.856Z,21.31
2023-08-16T23:27:19.000Z,21.15
2023-08-16T23:31:26.628Z,21.04
2023-08-16T23:35:36.182Z,21.02
2023-08-16T23:39:44.578Z,21.01
2023-08-16T23:43:52.678Z,21.01
2023-08-16T23:48:02.696Z,21.07
2023-08-16T23:52:11.246Z,21.15
2023-08-16T23:56:20.118Z,21.19
